To NAV CANADA Home Page Login to a new session Search on AWWS site Feedback and Comments Disclaimer Vers la page française équivalente Tips FAQ What's new on the site To the Forecasts and Observations / NOTAM section To "File a Flight Plan" website Publications and other links Update of the User's profile FIC Telephone Numbers My Weather Data Folder Route Weather Data Regional Weather Data Local Weather Data To the Forecasts and Observations / NOTAM section
Request Generated 04/30/2017 at 20:33:04 UTC . Weather information available at that time is displayed.

METAR/TAF

STONY RAPIDS/SK    (show WxCam)

METAR CYSF 302000Z AUTO 15013G18KT 120V200 9SM SCT070 SCT120 13/01
A2986 RMK SLP124=
METAR CYSF 301900Z AUTO 20009G16KT 9SM FEW060 SCT130 13/M01 A2985 RMK
SLP122=
METAR CYSF 301800Z AUTO 27005KT 200V320 9SM FEW085 13/M00 A2985 RMK
SLP122=

TAF AMD CYSF 302020Z 3020/0106 15010G20KT P6SM SCT080
RMK FCST BASED ON AUTO OBS. NXT FCST BY 010000Z=
Your time UTC time
Weather data provided by Environment Canada and NAV CANADA